createdAt,value
2023-09-08T00:00:51.385Z,19
2023-09-08T00:02:53.237Z,19
2023-09-08T00:04:58.210Z,18.9
2023-09-08T00:07:00.069Z,19.2
2023-09-08T00:09:01.866Z,18.9
2023-09-08T00:11:03.689Z,19.1
2023-09-08T00:15:07.345Z,18.9
2023-09-08T00:17:09.213Z,19
2023-09-08T00:25:19.631Z,19
2023-09-08T00:29:23.384Z,19
2023-09-08T00:31:25.104Z,18.9
2023-09-08T00:35:31.975Z,18.8
2023-09-08T00:39:35.594Z,19
2023-09-08T00:41:37.480Z,18.8
2023-09-08T00:43:39.280Z,18.9
2023-09-08T00:45:41.164Z,18.6
2023-09-08T00:47:46.276Z,18.6
2023-09-08T00:49:47.960Z,18.7
2023-09-08T00:54:54.104Z,18.5
2023-09-08T00:56:55.977Z,18.3
2023-09-08T00:58:57.771Z,18.6
2023-09-08T01:03:04.742Z,18.2
2023-09-08T01:05:06.460Z,18.3
2023-09-08T01:09:10.196Z,18.1
2023-09-08T01:11:11.990Z,18.2
2023-09-08T01:15:18.894Z,18
2023-09-08T01:17:20.700Z,18.2
2023-09-08T01:23:26.244Z,17.9
2023-09-08T01:25:28.189Z,18.3
2023-09-08T01:27:29.927Z,18.1
2023-09-08T01:31:36.856Z,18
2023-09-08T01:35:40.453Z,18.1
2023-09-08T01:37:42.312Z,18
2023-09-08T01:39:44.130Z,17.8
2023-09-08T01:41:45.999Z,17.9
2023-09-08T01:43:50.993Z,17.8
2023-09-08T01:45:52.843Z,17.8
2023-09-08T01:47:54.696Z,18.2
2023-09-08T01:50:23.177Z,17.9
2023-09-08T01:52:25.021Z,18
2023-09-08T01:54:26.868Z,18
2023-09-08T01:56:31.880Z,18.1
2023-09-08T01:58:34.002Z,17.9
2023-09-08T02:00:35.549Z,17.9
2023-09-08T02:02:37.463Z,18
2023-09-08T02:06:41.075Z,17.8
2023-09-08T02:08:42.953Z,17.9
2023-09-08T02:10:47.949Z,17.9
2023-09-08T02:12:49.779Z,17.8
2023-09-08T02:14:51.713Z,17.7
2023-09-08T02:16:53.517Z,18
2023-09-08T02:18:55.341Z,17.8
2023-09-08T02:20:57.251Z,17.9
2023-09-08T02:22:59.016Z,17.7
2023-09-08T02:31:09.545Z,17.7
2023-09-08T02:33:11.398Z,17.9
2023-09-08T02:35:13.256Z,17.7
2023-09-08T02:37:15.082Z,17.8
2023-09-08T02:39:20.108Z,17.7
2023-09-08T02:41:21.938Z,17.7
2023-09-08T02:43:23.778Z,17.7
2023-09-08T02:44:26.272Z,17.6
2023-09-08T02:52:36.853Z,17.4
2023-09-08T02:56:40.546Z,17.3
2023-09-08T03:00:44.257Z,17.5
2023-09-08T03:02:46.220Z,17.4
2023-09-08T03:04:47.961Z,17.4
2023-09-08T03:06:52.986Z,17.5
2023-09-08T03:08:54.832Z,17.4
2023-09-08T03:10:56.661Z,17.3
2023-09-08T03:15:00.379Z,17.4
2023-09-08T03:17:02.280Z,17.3
2023-09-08T03:19:04.106Z,17.2
2023-09-08T03:21:09.108Z,17.4
2023-09-08T03:23:10.963Z,17.4
2023-09-08T03:25:12.874Z,17.2
2023-09-08T03:27:14.702Z,17.2
2023-09-08T03:29:16.535Z,17.2
2023-09-08T03:33:20.484Z,17.1
2023-09-08T03:35:25.237Z,17.2
2023-09-08T03:40:31.459Z,17.3
2023-09-08T03:42:33.308Z,17.1
2023-09-08T03:44:35.166Z,17.1
2023-09-08T03:46:37.112Z,17.1
2023-09-08T03:48:42.032Z,17.1
2023-09-08T03:50:43.880Z,17.2
2023-09-08T03:52:45.736Z,17
2023-09-08T03:54:47.610Z,17.1
2023-09-08T03:58:51.475Z,17.2
2023-09-08T04:00:53.199Z,16.8
2023-09-08T04:02:58.288Z,16.8
2023-09-08T04:05:00.105Z,16.8
2023-09-08T04:07:01.984Z,16.8
2023-09-08T04:09:03.790Z,16.9
2023-09-08T04:11:05.617Z,16.9
2023-09-08T04:13:07.489Z,16.8
2023-09-08T04:15:09.418Z,17
2023-09-08T04:17:14.347Z,16.8
2023-09-08T04:19:16.191Z,16.5
2023-09-08T04:21:18.082Z,16.7
2023-09-08T04:23:19.935Z,16.6
2023-09-08T04:35:34.245Z,16.6
2023-09-08T04:36:36.743Z,16.5
2023-09-08T04:40:40.464Z,16.5
2023-09-08T04:42:42.363Z,16.7
2023-09-08T04:44:48.327Z,16.6
2023-09-08T04:46:49.248Z,16.5
2023-09-08T04:48:51.066Z,16.7
2023-09-08T04:50:52.912Z,16.4
2023-09-08T04:52:54.748Z,16.5
2023-09-08T04:54:56.633Z,16.5
2023-09-08T04:57:08.003Z,16.5
2023-09-08T04:59:03.489Z,16.5
2023-09-08T05:01:05.382Z,16.6
2023-09-08T05:03:07.273Z,16.7
2023-09-08T05:05:09.056Z,16.4
2023-09-08T05:07:10.932Z,16.4
2023-09-08T05:09:12.796Z,16.4
2023-09-08T05:11:14.660Z,16.5
2023-09-08T05:13:30.108Z,16.4
2023-09-08T05:15:21.575Z,16.5
2023-09-08T05:17:23.383Z,16.5
2023-09-08T05:19:25.261Z,16.6
2023-09-08T05:21:27.162Z,16.5
2023-09-08T05:25:30.896Z,16.6
2023-09-08T05:27:35.946Z,16.4
2023-09-08T05:29:37.771Z,16.7
2023-09-08T05:31:39.621Z,16.5
2023-09-08T05:34:08.149Z,16.6
2023-09-08T05:36:10.075Z,16.7
2023-09-08T05:38:11.925Z,16.6
2023-09-08T05:40:18.512Z,16.8
2023-09-08T05:42:20.338Z,16.8
2023-09-08T05:44:22.191Z,16.7
2023-09-08T05:46:24.142Z,16.9
2023-09-08T05:48:25.902Z,16.7
2023-09-08T05:50:27.813Z,16.9
2023-09-08T05:52:29.817Z,16.9
2023-09-08T05:54:34.646Z,18.2
2023-09-08T05:56:36.526Z,18
2023-09-08T06:04:43.956Z,19.6
2023-09-08T06:06:45.794Z,19.4
2023-09-08T06:08:50.792Z,20.5
2023-09-08T06:10:52.639Z,21.2
2023-09-08T06:12:54.563Z,21.6
2023-09-08T06:14:56.298Z,21.1
2023-09-08T06:16:58.244Z,19.5
2023-09-08T06:18:59.977Z,18.7
2023-09-08T06:21:01.904Z,19.2
2023-09-08T06:23:06.862Z,19
2023-09-08T06:25:08.697Z,18.7
2023-09-08T06:27:10.555Z,19.1
2023-09-08T06:28:13.026Z,19.6
2023-09-08T06:32:16.735Z,21.1
2023-09-08T06:34:18.600Z,21.4
2023-09-08T06:36:23.610Z,23.1
2023-09-08T06:38:25.322Z,23.4
2023-09-08T06:40:27.131Z,23.6
2023-09-08T06:42:29.007Z,23.9
2023-09-08T06:44:30.758Z,24.7
2023-09-08T06:46:32.615Z,24.9
2023-09-08T06:50:39.345Z,21.7
2023-09-08T06:52:41.073Z,21.4
2023-09-08T06:54:42.881Z,20.6
2023-09-08T06:58:46.449Z,20.6
2023-09-08T07:00:48.323Z,21.1
2023-09-08T07:02:50.225Z,21.3
2023-09-08T07:04:55.163Z,22.6
2023-09-08T07:08:58.504Z,21.2
2023-09-08T07:11:00.327Z,21.1
2023-09-08T07:13:02.100Z,21.4
2023-09-08T07:17:05.697Z,22.3
2023-09-08T07:19:10.579Z,22.2
2023-09-08T07:21:12.343Z,22.3
2023-09-08T07:23:14.105Z,21.9
2023-09-08T07:24:16.579Z,20.7
2023-09-08T07:26:18.340Z,21
2023-09-08T07:28:22.073Z,21.3
2023-09-08T07:30:22.034Z,21
2023-09-08T07:36:30.386Z,21
2023-09-08T07:38:32.335Z,21.1
2023-09-08T07:40:33.973Z,21
2023-09-08T07:42:35.729Z,21
2023-09-08T07:44:37.566Z,21.1
2023-09-08T07:46:42.479Z,21.6
2023-09-08T07:54:49.575Z,25.1
2023-09-08T08:02:59.848Z,22.5
2023-09-08T08:05:01.519Z,22.3
2023-09-08T08:07:03.246Z,22.4
2023-09-08T08:09:05.020Z,22.9
2023-09-08T08:13:08.506Z,22.7
2023-09-08T08:17:15.197Z,22.5
2023-09-08T08:19:16.928Z,22.9
2023-09-08T08:20:19.703Z,23.1
2023-09-08T08:22:21.145Z,22.9
2023-09-08T08:24:22.910Z,22.9
2023-09-08T08:26:24.633Z,23.4
2023-09-08T08:30:31.324Z,24.6
2023-09-08T08:36:36.593Z,25.1
2023-09-08T08:38:38.277Z,25
2023-09-08T08:40:39.995Z,24.2
2023-09-08T08:42:44.927Z,23.8
2023-09-08T08:44:46.660Z,23.7
2023-09-08T08:46:48.397Z,24
2023-09-08T08:48:50.127Z,23.9
2023-09-08T08:50:51.889Z,24.1
2023-09-08T08:54:55.356Z,24.4
2023-09-08T08:57:00.286Z,24.2
2023-09-08T08:59:01.947Z,24.2
2023-09-08T09:01:03.687Z,24.4
2023-09-08T09:03:14.890Z,24.6
2023-09-08T09:05:07.101Z,24.7
2023-09-08T09:07:08.834Z,25
2023-09-08T09:11:15.434Z,25.2
2023-09-08T09:40:12.492Z,25.7
2023-09-08T09:44:15.711Z,25.7
2023-09-08T09:46:17.500Z,25.8
2023-09-08T09:48:19.146Z,25.9
2023-09-08T09:50:20.783Z,26
2023-09-08T09:52:25.645Z,26.3
2023-09-08T09:56:28.997Z,26.3
2023-09-08T09:58:30.730Z,26.1
2023-09-08T10:00:32.358Z,26.3
2023-09-08T10:02:34.096Z,26.9
2023-09-08T10:04:35.671Z,27.6
2023-09-08T10:06:40.605Z,27.2
2023-09-08T10:08:42.169Z,27
2023-09-08T10:10:43.790Z,27
2023-09-08T10:11:46.188Z,27.3
2023-09-08T10:13:47.829Z,27.3
2023-09-08T10:15:49.510Z,27.4
2023-09-08T10:17:51.305Z,26.5
2023-09-08T10:19:55.941Z,26.5
2023-09-08T10:21:57.579Z,26.5
2023-09-08T10:23:59.177Z,26.5
2023-09-08T10:26:02.092Z,26.6
2023-09-08T10:28:02.424Z,26.8
2023-09-08T10:30:04.076Z,27.7
2023-09-08T10:32:05.733Z,28.4
2023-09-08T10:34:10.514Z,27.2
2023-09-08T10:36:12.133Z,27.2
2023-09-08T10:38:13.737Z,27.5
2023-09-08T10:42:16.969Z,27.7
2023-09-08T10:46:20.221Z,27.5
2023-09-08T10:48:25.029Z,27.6
2023-09-08T10:50:26.759Z,27.5
2023-09-08T10:52:28.595Z,27.8
2023-09-08T10:54:29.856Z,28
2023-09-08T10:56:31.467Z,28.1
2023-09-08T11:00:34.673Z,28.8
2023-09-08T11:02:39.752Z,28.6
2023-09-08T11:04:41.128Z,28.6
2023-09-08T11:06:42.674Z,28.4
2023-09-08T11:07:45.168Z,28.2
2023-09-08T11:17:56.274Z,27.5
2023-09-08T11:19:57.770Z,28.1
2023-09-08T11:38:16.709Z,28.7
2023-09-08T11:40:18.381Z,28.7
2023-09-08T11:42:19.874Z,28.4
2023-09-08T11:46:26.301Z,28.8
2023-09-08T11:48:27.831Z,28.7
2023-09-08T11:50:29.404Z,28.5
2023-09-08T11:52:30.998Z,29.1
2023-09-08T11:54:32.578Z,29
2023-09-08T11:56:34.121Z,29.1
2023-09-08T11:58:39.279Z,29
2023-09-08T12:00:40.474Z,28.9
2023-09-08T12:03:46.683Z,29.3
2023-09-08T12:05:45.970Z,28.9
2023-09-08T12:13:55.377Z,29.2
2023-09-08T12:15:56.983Z,29.2
2023-09-08T12:17:58.434Z,29.2
2023-09-08T12:20:00.017Z,29.4
2023-09-08T12:22:01.586Z,29.2
2023-09-08T12:24:03.080Z,29.3
2023-09-08T12:30:10.920Z,29
2023-09-08T12:34:13.948Z,28.9
2023-09-08T12:36:15.468Z,28.9
2023-09-08T12:38:16.996Z,29
2023-09-08T12:40:21.816Z,29.2
2023-09-08T12:42:23.327Z,29.2
2023-09-08T12:44:24.899Z,29.1
2023-09-08T12:46:26.528Z,29.4
2023-09-08T12:48:27.962Z,29.4
2023-09-08T12:50:29.536Z,29.4
2023-09-08T12:52:31.082Z,29.7
2023-09-08T12:54:35.834Z,29.6
2023-09-08T12:56:37.399Z,29.5
2023-09-08T12:58:39.074Z,29.6
2023-09-08T13:01:07.117Z,29.8
2023-09-08T13:07:14.907Z,30.6
2023-09-08T13:09:16.434Z,30.2
2023-09-08T13:11:18.014Z,30.1
2023-09-08T13:13:19.480Z,30.4
2023-09-08T13:15:20.986Z,30.4
2023-09-08T13:17:22.470Z,30.8
2023-09-08T13:19:23.874Z,30.5
2023-09-08T13:25:31.201Z,30.8
2023-09-08T13:27:32.630Z,30.4
2023-09-08T13:31:35.488Z,30.2
2023-09-08T13:35:41.127Z,30.5
2023-09-08T13:37:42.597Z,30.6
2023-09-08T13:39:44.145Z,30.4
2023-09-08T13:41:45.492Z,30.1
2023-09-08T13:43:47.532Z,30.2
2023-09-08T13:45:48.281Z,30.7
2023-09-08T13:47:50.430Z,30.6
2023-09-08T13:49:55.427Z,29.9
2023-09-08T13:53:58.262Z,30.5
2023-09-08T14:01:06.348Z,30.1
2023-09-08T14:15:16.995Z,30.8
2023-09-08T14:19:23.091Z,30.8
2023-09-08T14:21:24.587Z,31.1
2023-09-08T14:25:27.598Z,30.9
2023-09-08T14:27:28.924Z,30.9
2023-09-08T14:29:30.361Z,30.6
2023-09-08T14:31:34.936Z,30.7
2023-09-08T14:33:36.534Z,30.8
2023-09-08T14:35:37.944Z,31
2023-09-08T14:37:39.409Z,31.3
2023-09-08T14:39:40.906Z,30.6
2023-09-08T14:41:42.409Z,30.5
2023-09-08T14:43:43.882Z,30.9
2023-09-08T14:45:48.400Z,31
2023-09-08T14:47:49.926Z,31.4
2023-09-08T14:49:51.368Z,32.6
2023-09-08T15:03:05.160Z,31.3
2023-09-08T15:05:06.594Z,31.1
2023-09-08T15:07:07.961Z,30.7
2023-09-08T15:09:09.308Z,31
2023-09-08T15:11:10.646Z,30.8
2023-09-08T15:13:15.179Z,31.1
2023-09-08T15:15:16.485Z,30.9
2023-09-08T15:17:17.846Z,31.2
2023-09-08T15:21:20.710Z,31
2023-09-08T15:23:22.164Z,31.2
2023-09-08T15:25:23.618Z,31.1
2023-09-08T15:29:29.567Z,31
2023-09-08T15:35:33.831Z,31.2
2023-09-08T15:41:41.468Z,31
2023-09-08T15:43:42.854Z,31.1
2023-09-08T15:45:44.610Z,31.3
2023-09-08T15:46:46.780Z,31.2
2023-09-08T15:48:48.181Z,31
2023-09-08T15:50:49.578Z,31
2023-09-08T15:52:51.057Z,30.9
2023-09-08T15:56:57.252Z,30.8
2023-09-08T15:58:58.754Z,30.8
2023-09-08T16:03:01.841Z,30.6
2023-09-08T16:15:13.977Z,30.6
2023-09-08T16:17:15.490Z,30.4
2023-09-08T16:25:24.599Z,30.6
2023-09-08T16:33:30.654Z,30.3
2023-09-08T16:37:36.892Z,30.2
2023-09-08T16:44:07.787Z,30
2023-09-08T16:56:20.050Z,29.9
2023-09-08T17:14:37.086Z,29.4
2023-09-08T17:37:02.099Z,28.7
2023-09-08T17:38:04.525Z,28.7
2023-09-08T17:40:06.078Z,28.3
2023-09-08T17:42:07.637Z,28.3
2023-09-08T17:44:09.221Z,28.3
2023-09-08T17:46:14.089Z,28
2023-09-08T17:48:15.644Z,28
2023-09-08T17:50:17.159Z,28.2
2023-09-08T17:52:18.802Z,27.7
2023-09-08T17:54:20.322Z,27.8
2023-09-08T18:06:33.109Z,27.3
2023-09-08T18:08:34.679Z,27.5
2023-09-08T18:10:36.325Z,27.3
2023-09-08T18:18:45.915Z,26.9
2023-09-08T18:20:47.551Z,26.7
2023-09-08T18:22:49.164Z,26.8
2023-09-08T18:24:50.774Z,26.7
2023-09-08T18:26:52.393Z,26.6
2023-09-08T18:28:57.273Z,26.8
2023-09-08T18:30:58.841Z,26.4
2023-09-08T18:33:00.439Z,26.5
2023-09-08T18:34:02.864Z,26.2
2023-09-08T18:38:06.168Z,26.4
2023-09-08T18:48:17.544Z,25.9
2023-09-08T18:50:19.151Z,26.1
2023-09-08T18:52:20.777Z,25.7
2023-09-08T18:54:22.375Z,26.1
2023-09-08T18:56:27.248Z,26
2023-09-08T18:58:28.855Z,26.1
2023-09-08T19:00:30.486Z,26.2
2023-09-08T19:04:33.797Z,26.2
2023-09-08T19:06:35.421Z,26.2
2023-09-08T19:10:41.874Z,26.1
2023-09-08T19:12:43.494Z,26
2023-09-08T19:14:45.212Z,26
2023-09-08T19:20:50.111Z,25.8
2023-09-08T19:22:51.733Z,25.8
2023-09-08T19:24:56.600Z,25.4
2023-09-08T19:26:58.202Z,25.7
2023-09-08T19:29:02.541Z,25.2
2023-09-08T19:30:02.312Z,25.2
2023-09-08T19:32:03.947Z,25.3
2023-09-08T19:34:05.673Z,25.2
2023-09-08T19:40:13.920Z,25.2
2023-09-08T19:48:20.512Z,24.5
2023-09-08T19:50:22.130Z,24.6
2023-09-08T19:52:26.993Z,24.4
2023-09-08T19:56:30.369Z,24.6
2023-09-08T20:00:33.739Z,24
2023-09-08T20:02:35.491Z,24.3
2023-09-08T20:14:48.790Z,24
2023-09-08T20:16:50.518Z,23.8
2023-09-08T20:18:52.182Z,23.9
2023-09-08T20:20:57.100Z,23.7
2023-09-08T20:22:58.798Z,23.8
2023-09-08T20:27:28.836Z,23.8
2023-09-08T20:37:40.563Z,23.5
2023-09-08T20:39:42.309Z,23.5
2023-09-08T20:55:59.316Z,23.4
2023-09-08T20:58:01.023Z,23.4
2023-09-08T21:00:02.761Z,23.4
2023-09-08T21:08:12.862Z,23
2023-09-08T21:14:18.059Z,23
2023-09-08T21:16:23.008Z,22.9
2023-09-08T21:18:24.727Z,23
2023-09-08T21:21:28.919Z,22.9
2023-09-08T21:25:32.397Z,22.8
2023-09-08T21:27:34.151Z,22.7
2023-09-08T21:31:40.825Z,22.8
2023-09-08T21:39:47.783Z,22.6
2023-09-08T21:41:49.567Z,22.7
2023-09-08T21:45:56.272Z,22.6
2023-09-08T21:47:58.012Z,22.6
2023-09-08T21:56:04.994Z,22.6
2023-09-08T21:58:09.916Z,22.2
2023-09-08T22:00:11.694Z,22.3
2023-09-08T22:02:13.478Z,22.2
2023-09-08T22:04:15.306Z,22
2023-09-08T22:06:16.944Z,22.2
2023-09-08T22:08:18.679Z,22.3
2023-09-08T22:10:20.448Z,22.1
2023-09-08T22:12:25.390Z,22.1
2023-09-08T22:14:27.129Z,22.2
2023-09-08T22:16:28.958Z,22.1
2023-09-08T22:17:31.381Z,22
2023-09-08T22:33:49.034Z,21.9
2023-09-08T22:37:53.035Z,21.8
2023-09-08T22:39:57.254Z,21.8
2023-09-08T22:48:04.358Z,21.8
2023-09-08T22:56:14.607Z,21.8
2023-09-08T22:58:16.347Z,21.5
2023-09-08T23:00:18.146Z,21.5
2023-09-08T23:02:19.966Z,21.7
2023-09-08T23:04:21.675Z,21.6
2023-09-08T23:06:23.446Z,21.5
2023-09-08T23:10:30.241Z,21.5
2023-09-08T23:13:36.430Z,21.7
2023-09-08T23:15:37.705Z,21.6
2023-09-08T23:17:39.654Z,21.6
2023-09-08T23:21:46.256Z,21.3
2023-09-08T23:25:49.736Z,21.2
2023-09-08T23:38:03.602Z,21
2023-09-08T23:44:09.018Z,20.8
2023-09-08T23:48:12.567Z,21.1
